Etusivu
METAR-TAF:

METAR-TAF

Lentoasemat :

Paso de los Libres, Argentiina

Leveyspiiri: 29-41S, Pituuspiiri: 057-09W, korkeus merenpinnasta: 69 m

Tämänhetkinen sää

Tämä raportti tehtiin 45 minuuttia sitten, kello 00.00 UTC
Tuuli 15 kn lännestä
Lämpötila 23°C
Kosteus 94%
Ilmanpaine 1012 hPa
Näkyvyys: 6000 m
Hajonneita pilviä 1000 ft:n korkeudessa
Pilvistä 4000 ft:n korkeudessa
Muutamia pilviä 4500 ft:n korkeudessa, Cumulonimbus.
ukkosmyrsky, heikkoa sadetta

METAR: SARL 020000Z 27015KT 6000 -TSRA BKN010 OVC040 FEW045CB 23/22 Q1012

Aika: 21:45 (00:45 UTC)


TAF: puuttuu

Säähavainnot ja -ennusteet yli 4000 lentoasemalta (METAR- ja TAF-raportit).

Käytössä olevat sääasemat on merkitty karttaan keltaisilla ja punaisilla pisteillä.

Aseta hiiri pisteen päälle nähdäksesi sääaseman nimen.

Klikkaa sitten nähdäksesi säähavainnot ja -ennusteet.

Kartan vaihtaminen: klikkaa mustalla rastilla varustettuja vihreitä pisteitä, niin voit zoomata sisään; viivalla varustettua vihreää pistettä, niin voit zoomata ulos tai vihreitä nuolia, niin pääset viereisille kartoille.


METAR-TAF: